MEDX · Horizon Kinetics Medical ETF ETF
$36.69
-0.39 (-1.06%)
At close · Sep 4
Daily short-sale volume published by FINRA from its trade-reporting facilities. It measures how many shares were sold short each day as a share of total volume — a daily flow, not the total outstanding short position.
Short Volume
| Date | Short Volume | Short Exempt | Total Volume | Short % |
|---|---|---|---|---|
| 2026-09-04 | 1,295 | 0 | 2,143 | 60.4% |
| 2026-09-03 | 1,309 | 0 | 1,380 | 94.9% |
| 2026-09-02 | 1,266 | 0 | 1,286 | 98.4% |
| 2026-09-01 | 483 | 0 | 2,186 | 22.1% |
| 2026-08-31 | 622 | 0 | 1,319 | 47.2% |
| 2026-08-28 | 668 | 0 | 1,313 | 50.9% |
| 2026-08-27 | 1,506 | 0 | 1,613 | 93.4% |
| 2026-08-26 | 622 | 0 | 1,177 | 52.8% |
| 2026-08-25 | 586 | 0 | 793 | 73.9% |
| 2026-08-24 | 1,176 | 0 | 1,776 | 66.2% |
| 2026-08-21 | 623 | 0 | 2,185 | 28.5% |
| 2026-08-20 | 478 | 0 | 1,081 | 44.2% |
| 2026-08-19 | 1,008 | 0 | 1,118 | 90.2% |
| 2026-08-18 | 968 | 0 | 1,278 | 75.7% |
| 2026-08-17 | 693 | 0 | 1,392 | 49.8% |
| 2026-08-14 | 532 | 0 | 548 | 97.2% |
| 2026-08-13 | 748 | 0 | 852 | 87.8% |
| 2026-08-12 | 16 | 0 | 451 | 3.6% |
| 2026-08-11 | 183 | 0 | 188 | 97.2% |
| 2026-08-10 | 13 | 0 | 67 | 19.5% |
| 2026-08-07 | 755 | 0 | 871 | 86.6% |
| 2026-08-06 | 3 | 0 | 12 | 24.3% |
| 2026-08-05 | 11 | 0 | 320 | 3.5% |
| 2026-08-04 | 3 | 0 | 70 | 4.3% |
| 2026-08-03 | 9 | 0 | 16 | 55.0% |
| 2026-07-30 | 721 | 0 | 2,496 | 28.9% |
| 2026-07-29 | 2,609 | 0 | 2,797 | 93.3% |
| 2026-07-28 | 2 | 0 | 137 | 1.5% |
| 2026-07-27 | 32 | 0 | 75 | 42.7% |
| 2026-07-24 | 11 | 0 | 65 | 16.2% |
| 2026-07-23 | 510 | 0 | 519 | 98.2% |
| 2026-07-22 | 6 | 0 | 20 | 29.6% |
| 2026-07-21 | 5 | 0 | 243 | 2.1% |
| 2026-07-20 | 72 | 0 | 195 | 37.0% |
| 2026-07-17 | 133 | 0 | 169 | 78.5% |
| 2026-07-16 | 4 | 0 | 72 | 6.1% |
| 2026-07-15 | 5,271 | 0 | 7,449 | 70.8% |
| 2026-07-14 | 1,302 | 0 | 1,602 | 81.3% |
| 2026-07-13 | 8 | 0 | 3,414 | 0.2% |
| 2026-07-10 | 10 | 0 | 26 | 37.8% |
| 2026-07-09 | 162 | 0 | 318 | 50.9% |
| 2026-07-08 | 421 | 0 | 4,781 | 8.8% |
| 2026-07-07 | 129 | 0 | 153 | 84.6% |
| 2026-07-06 | 75 | 0 | 88 | 85.7% |
| 2026-07-02 | 206 | 0 | 779 | 26.4% |
| 2026-07-01 | 2 | 0 | 8 | 26.5% |
| 2026-06-30 | 109 | 0 | 386 | 28.2% |
| 2026-06-29 | 38 | 0 | 72 | 53.0% |
| 2026-06-26 | 115 | 0 | 146 | 78.9% |
| 2026-06-25 | 723 | 0 | 952 | 75.9% |
Showing 1–50 of 62 days